メインページ
METAR-TAF:

METAR-TAF

空港 :

ヤウンデ・ンシマレン国際空港

ヤウンデ, カメルーン

緯度: 03-50N, 経度: 011-31E, 海抜: 751m

現時点の気象観測

当レポートは39分前の01:00(UTC)に作成
気温 22°C
湿度 94%
気圧 1017 hPa
視程: 7000m
高度1000ftの雲は散在している

METAR: FKYS 210100Z /////KT 7000 SCT010 22/21 Q1017 NOSIG

時間: 02:39 (01:39 UTC)

予報

当レポートは2時間39分前の23:00(UTC)に作成
予報は21日の 00時(UTC)から 21日の 24時(UTC)まで有効
変向風 3kt
視程: 6000m
高度600ftの千切れ雲あり
21日の 03時(UTC)から 21日の 08時(UTC)まで一時的に
視程: 2000m
21日の 07時(UTC)から 21日の 09時(UTC)まで徐々に
高度1300ftの千切れ雲あり

TAF: FKYS 202300Z 2100/2124 VRB03KT 6000 BKN006 TEMPO 2103/2108 2000 BR BECMG 2107/2109 BKN013

4,000以上の空港の気象観測と天気予報(METAR報とTAF報)

利用可能な観測所は地図上に黄色い丸と赤い丸で示す。

丸の上にカーソルを重ねると観測所名を参照できる。

次にクリックすると気象観測と天気予報を参照できる。

マップの切り替え:黒色「×」印の緑ボタンをクリックして拡大、「-」印の緑ボタンをクリックして縮小、緑色の三角印をクリックして隣りの地図に切り替え


METAR-TAF: